sensor_id;sensor_type;location;lat;lon;timestamp;pressure;altitude;pressure_sealevel;temperature;humidity
64544;BME280;50936;51.660;5.616;2023-04-21T00:01:55;101165.41;;;6.77;100.00
64544;BME280;50936;51.660;5.616;2023-04-21T00:04:24;101160.91;;;6.77;100.00
64544;BME280;50936;51.660;5.616;2023-04-21T00:06:51;101165.47;;;6.75;100.00
64544;BME280;50936;51.660;5.616;2023-04-21T00:09:19;101154.09;;;6.70;100.00
64544;BME280;50936;51.660;5.616;2023-04-21T00:11:47;101141.69;;;6.67;100.00
64544;BME280;50936;51.660;5.616;2023-04-21T00:14:13;101130.00;;;6.68;100.00
64544;BME280;50936;51.660;5.616;2023-04-21T00:16:40;101137.25;;;6.66;100.00
64544;BME280;50936;51.660;5.616;2023-04-21T00:19:07;101129.28;;;6.65;100.00
64544;BME280;50936;51.660;5.616;2023-04-21T00:21:35;101125.78;;;6.63;100.00
64544;BME280;50936;51.660;5.616;2023-04-21T00:24:02;101128.47;;;6.63;100.00
64544;BME280;50936;51.660;5.616;2023-04-21T00:26:29;101116.09;;;6.60;100.00
64544;BME280;50936;51.660;5.616;2023-04-21T00:28:56;101107.97;;;6.62;100.00
64544;BME280;50936;51.660;5.616;2023-04-21T00:31:23;101106.22;;;6.61;100.00
64544;BME280;50936;51.660;5.616;2023-04-21T00:33:50;101119.63;;;6.61;100.00
64544;BME280;50936;51.660;5.616;2023-04-21T00:36:16;101117.91;;;6.60;100.00
64544;BME280;50936;51.660;5.616;2023-04-21T00:38:45;101126.09;;;6.57;100.00
64544;BME280;50936;51.660;5.616;2023-04-21T00:41:13;101118.97;;;6.55;100.00
64544;BME280;50936;51.660;5.616;2023-04-21T00:43:59;101114.50;;;6.56;100.00
64544;BME280;50936;51.660;5.616;2023-04-21T00:46:30;101110.94;;;6.55;100.00
64544;BME280;50936;51.660;5.616;2023-04-21T00:48:59;101112.75;;;6.55;100.00
64544;BME280;50936;51.660;5.616;2023-04-21T00:51:29;101117.25;;;6.54;100.00
64544;BME280;50936;51.660;5.616;2023-04-21T00:54:03;101119.94;;;6.54;100.00
64544;BME280;50936;51.660;5.616;2023-04-21T00:56:33;101106.53;;;6.54;100.00
64544;BME280;50936;51.660;5.616;2023-04-21T00:59:02;101112.03;;;6.51;100.00
64544;BME280;50936;51.660;5.616;2023-04-21T01:01:30;101110.22;;;6.52;100.00
64544;BME280;50936;51.660;5.616;2023-04-21T01:04:00;101108.41;;;6.52;100.00
64544;BME280;50936;51.660;5.616;2023-04-21T01:06:32;101103.06;;;6.52;100.00
64544;BME280;50936;51.660;5.616;2023-04-21T01:09:02;101102.03;;;6.55;100.00
64544;BME280;50936;51.660;5.616;2023-04-21T01:11:30;101100.13;;;6.57;100.00
64544;BME280;50936;51.660;5.616;2023-04-21T01:13:58;101095.66;;;6.58;100.00
64544;BME280;50936;51.660;5.616;2023-04-21T01:16:27;101094.69;;;6.59;100.00
64544;BME280;50936;51.660;5.616;2023-04-21T01:18:55;101094.63;;;6.60;100.00
64544;BME280;50936;51.660;5.616;2023-04-21T01:21:22;101100.91;;;6.59;100.00
64544;BME280;50936;51.660;5.616;2023-04-21T01:23:49;101086.78;;;6.55;100.00
64544;BME280;50936;51.660;5.616;2023-04-21T01:26:18;101089.56;;;6.54;100.00
64544;BME280;50936;51.660;5.616;2023-04-21T01:28:48;101091.34;;;6.53;100.00
64544;BME280;50936;51.660;5.616;2023-04-21T01:31:22;101090.56;;;6.51;100.00
64544;BME280;50936;51.660;5.616;2023-04-21T01:33:49;101093.25;;;6.51;100.00
64544;BME280;50936;51.660;5.616;2023-04-21T01:36:16;101096.06;;;6.48;100.00
64544;BME280;50936;51.660;5.616;2023-04-21T01:38:44;101095.00;;;6.52;100.00
64544;BME280;50936;51.660;5.616;2023-04-21T01:41:11;101089.63;;;6.52;100.00
64544;BME280;50936;51.660;5.616;2023-04-21T01:43:38;101091.44;;;6.52;100.00
64544;BME280;50936;51.660;5.616;2023-04-21T01:46:05;101083.31;;;6.53;100.00
64544;BME280;50936;51.660;5.616;2023-04-21T01:48:35;101085.06;;;6.54;100.00
64544;BME280;50936;51.660;5.616;2023-04-21T01:51:04;101079.69;;;6.54;100.00
64544;BME280;50936;51.660;5.616;2023-04-21T01:53:31;101076.03;;;6.55;100.00
64544;BME280;50936;51.660;5.616;2023-04-21T01:56:00;101073.47;;;6.54;100.00
64544;BME280;50936;51.660;5.616;2023-04-21T01:58:29;101070.69;;;6.55;100.00
64544;BME280;50936;51.660;5.616;2023-04-21T02:00:56;101052.84;;;6.54;100.00
64544;BME280;50936;51.660;5.616;2023-04-21T02:03:23;101062.63;;;6.55;100.00
64544;BME280;50936;51.660;5.616;2023-04-21T02:05:50;101059.94;;;6.55;100.00
64544;BME280;50936;51.660;5.616;2023-04-21T02:08:17;101057.13;;;6.59;100.00
64544;BME280;50936;51.660;5.616;2023-04-21T02:10:44;101043.69;;;6.59;100.00
64544;BME280;50936;51.660;5.616;2023-04-21T02:13:11;101033.81;;;6.59;100.00
64544;BME280;50936;51.660;5.616;2023-04-21T02:15:38;101035.59;;;6.60;100.00
64544;BME280;50936;51.660;5.616;2023-04-21T02:18:05;101032.03;;;6.60;100.00
64544;BME280;50936;51.660;5.616;2023-04-21T02:20:33;101029.34;;;6.60;100.00
64544;BME280;50936;51.660;5.616;2023-04-21T02:23:00;101034.53;;;6.63;100.00
64544;BME280;50936;51.660;5.616;2023-04-21T02:25:27;101023.81;;;6.63;100.00
64544;BME280;50936;51.660;5.616;2023-04-21T02:27:55;101037.16;;;6.64;100.00
64544;BME280;50936;51.660;5.616;2023-04-21T02:30:25;101030.94;;;6.64;100.00
64544;BME280;50936;51.660;5.616;2023-04-21T02:32:52;101031.84;;;6.63;100.00
64544;BME280;50936;51.660;5.616;2023-04-21T02:35:19;101027.47;;;6.62;100.00
64544;BME280;50936;51.660;5.616;2023-04-21T02:37:46;101027.47;;;6.62;100.00
64544;BME280;50936;51.660;5.616;2023-04-21T02:40:14;101031.06;;;6.61;100.00
64544;BME280;50936;51.660;5.616;2023-04-21T02:42:41;101023.97;;;6.60;100.00
64544;BME280;50936;51.660;5.616;2023-04-21T02:45:08;101018.63;;;6.60;100.00
64544;BME280;50936;51.660;5.616;2023-04-21T02:47:36;101013.16;;;6.61;100.00
64544;BME280;50936;51.660;5.616;2023-04-21T02:50:03;101007.78;;;6.61;100.00
64544;BME280;50936;51.660;5.616;2023-04-21T02:52:34;101016.66;;;6.63;100.00
64544;BME280;50936;51.660;5.616;2023-04-21T02:55:03;101009.47;;;6.64;100.00
64544;BME280;50936;51.660;5.616;2023-04-21T02:57:31;101014.03;;;6.62;100.00
64544;BME280;50936;51.660;5.616;2023-04-21T02:59:58;101001.47;;;6.62;100.00
64544;BME280;50936;51.660;5.616;2023-04-21T03:02:25;101009.59;;;6.61;100.00
64544;BME280;50936;51.660;5.616;2023-04-21T03:04:52;101005.97;;;6.62;100.00
64544;BME280;50936;51.660;5.616;2023-04-21T03:07:19;101007.72;;;6.63;100.00
64544;BME280;50936;51.660;5.616;2023-04-21T03:09:46;101008.59;;;6.63;100.00
64544;BME280;50936;51.660;5.616;2023-04-21T03:12:13;101006.78;;;6.64;100.00
64544;BME280;50936;51.660;5.616;2023-04-21T03:14:40;101013.06;;;6.63;100.00
64544;BME280;50936;51.660;5.616;2023-04-21T03:17:07;101007.72;;;6.63;100.00
64544;BME280;50936;51.660;5.616;2023-04-21T03:19:34;101011.34;;;6.62;100.00
64544;BME280;50936;51.660;5.616;2023-04-21T03:22:01;101001.56;;;6.61;100.00
64544;BME280;50936;51.660;5.616;2023-04-21T03:24:29;101001.56;;;6.61;100.00
64544;BME280;50936;51.660;5.616;2023-04-21T03:26:56;101002.50;;;6.60;100.00
64544;BME280;50936;51.660;5.616;2023-04-21T03:29:23;100991.91;;;6.57;100.00
64544;BME280;50936;51.660;5.616;2023-04-21T03:31:50;100995.53;;;6.55;100.00
64544;BME280;50936;51.660;5.616;2023-04-21T03:34:17;100992.06;;;6.53;100.00
64544;BME280;50936;51.660;5.616;2023-04-21T03:36:45;100992.25;;;6.50;100.00
64544;BME280;50936;51.660;5.616;2023-04-21T03:39:12;100988.75;;;6.48;100.00
64544;BME280;50936;51.660;5.616;2023-04-21T03:41:44;100995.13;;;6.46;100.00
64544;BME280;50936;51.660;5.616;2023-04-21T03:44:11;100988.06;;;6.45;100.00
64544;BME280;50936;51.660;5.616;2023-04-21T03:46:38;100985.44;;;6.43;100.00
64544;BME280;50936;51.660;5.616;2023-04-21T03:49:05;100983.69;;;6.42;100.00
64544;BME280;50936;51.660;5.616;2023-04-21T03:51:32;100971.25;;;6.41;100.00
64544;BME280;50936;51.660;5.616;2023-04-21T03:53:59;100978.31;;;6.42;100.00
64544;BME280;50936;51.660;5.616;2023-04-21T03:56:25;100981.97;;;6.41;100.00
64544;BME280;50936;51.660;5.616;2023-04-21T03:58:52;100980.22;;;6.40;100.00
64544;BME280;50936;51.660;5.616;2023-04-21T04:01:19;100975.78;;;6.39;100.00
64544;BME280;50936;51.660;5.616;2023-04-21T04:03:46;100982.13;;;6.38;100.00
64544;BME280;50936;51.660;5.616;2023-04-21T04:06:13;100984.81;;;6.38;100.00
64544;BME280;50936;51.660;5.616;2023-04-21T04:08:40;100990.22;;;6.36;100.00
64544;BME280;50936;51.660;5.616;2023-04-21T04:11:06;100986.75;;;6.34;100.00
64544;BME280;50936;51.660;5.616;2023-04-21T04:13:33;100985.91;;;6.34;100.00
64544;BME280;50936;51.660;5.616;2023-04-21T04:16:00;100978.78;;;6.33;100.00
64544;BME280;50936;51.660;5.616;2023-04-21T04:18:27;100984.16;;;6.33;100.00
64544;BME280;50936;51.660;5.616;2023-04-21T04:20:54;100978.78;;;6.33;100.00
64544;BME280;50936;51.660;5.616;2023-04-21T04:23:21;100986.03;;;6.31;100.00
64544;BME280;50936;51.660;5.616;2023-04-21T04:25:48;100987.06;;;6.28;100.00
64544;BME280;50936;51.660;5.616;2023-04-21T04:28:17;100996.06;;;6.27;100.00
64544;BME280;50936;51.660;5.616;2023-04-21T04:30:44;100995.19;;;6.27;100.00
64544;BME280;50936;51.660;5.616;2023-04-21T04:33:10;100998.81;;;6.26;100.00
64544;BME280;50936;51.660;5.616;2023-04-21T04:35:37;101001.41;;;6.27;100.00
64544;BME280;50936;51.660;5.616;2023-04-21T04:38:04;100997.88;;;6.27;100.00
64544;BME280;50936;51.660;5.616;2023-04-21T04:40:33;100995.19;;;6.27;100.00
64544;BME280;50936;51.660;5.616;2023-04-21T04:43:00;100991.56;;;6.28;100.00
64544;BME280;50936;51.660;5.616;2023-04-21T04:45:28;100987.94;;;6.29;100.00
64544;BME280;50936;51.660;5.616;2023-04-21T04:47:58;100986.03;;;6.31;100.00
64544;BME280;50936;51.660;5.616;2023-04-21T04:50:26;100994.09;;;6.31;100.00
64544;BME280;50936;51.660;5.616;2023-04-21T04:52:52;100996.63;;;6.34;100.00
64544;BME280;50936;51.660;5.616;2023-04-21T04:55:20;100992.13;;;6.34;100.00
64544;BME280;50936;51.660;5.616;2023-04-21T04:57:47;100984.00;;;6.36;100.00
64544;BME280;50936;51.660;5.616;2023-04-21T05:00:15;100993.78;;;6.37;100.00
64544;BME280;50936;51.660;5.616;2023-04-21T05:02:42;100998.22;;;6.38;100.00
64544;BME280;50936;51.660;5.616;2023-04-21T05:05:10;101001.69;;;6.40;100.00
64544;BME280;50936;51.660;5.616;2023-04-21T05:07:37;101007.06;;;6.40;100.00
64544;BME280;50936;51.660;5.616;2023-04-21T05:10:04;101002.47;;;6.42;100.00
64544;BME280;50936;51.660;5.616;2023-04-21T05:12:31;101011.31;;;6.44;100.00
64544;BME280;50936;51.660;5.616;2023-04-21T05:14:58;101004.16;;;6.45;100.00
64544;BME280;50936;51.660;5.616;2023-04-21T05:17:25;101001.38;;;6.46;100.00
64544;BME280;50936;51.660;5.616;2023-04-21T05:19:52;101016.53;;;6.47;100.00
64544;BME280;50936;51.660;5.616;2023-04-21T05:22:20;101014.63;;;6.49;100.00
64544;BME280;50936;51.660;5.616;2023-04-21T05:24:47;101013.72;;;6.50;100.00
64544;BME280;50936;51.660;5.616;2023-04-21T05:27:14;101022.56;;;6.52;100.00
64544;BME280;50936;51.660;5.616;2023-04-21T05:29:41;101026.03;;;6.54;100.00
64544;BME280;50936;51.660;5.616;2023-04-21T05:32:08;101027.75;;;6.55;100.00
64544;BME280;50936;51.660;5.616;2023-04-21T05:34:38;101023.19;;;6.58;100.00
64544;BME280;50936;51.660;5.616;2023-04-21T05:37:04;101028.38;;;6.61;100.00
64544;BME280;50936;51.660;5.616;2023-04-21T05:39:31;101022.94;;;6.62;100.00
64544;BME280;50936;51.660;5.616;2023-04-21T05:41:58;101020.19;;;6.64;100.00
64544;BME280;50936;51.660;5.616;2023-04-21T05:44:25;101029.97;;;6.65;100.00
64544;BME280;50936;51.660;5.616;2023-04-21T05:46:52;101031.66;;;6.67;100.00
64544;BME280;50936;51.660;5.616;2023-04-21T05:49:19;101037.72;;;6.71;100.00
64544;BME280;50936;51.660;5.616;2023-04-21T05:51:46;101044.22;;;6.84;100.00
64544;BME280;50936;51.660;5.616;2023-04-21T05:54:12;101049.97;;;6.94;100.00
64544;BME280;50936;51.660;5.616;2023-04-21T05:56:40;101054.19;;;7.00;100.00
64544;BME280;50936;51.660;5.616;2023-04-21T05:59:06;101043.44;;;7.00;100.00
64544;BME280;50936;51.660;5.616;2023-04-21T06:01:33;101049.59;;;7.02;100.00
64544;BME280;50936;51.660;5.616;2023-04-21T06:04:01;101037.75;;;7.06;100.00
64544;BME280;50936;51.660;5.616;2023-04-21T06:06:28;101039.31;;;7.10;100.00
64544;BME280;50936;51.660;5.616;2023-04-21T06:08:56;101032.03;;;7.12;100.00
64544;BME280;50936;51.660;5.616;2023-04-21T06:11:22;101028.34;;;7.15;100.00
64544;BME280;50936;51.660;5.616;2023-04-21T06:13:50;101024.63;;;7.17;100.00
64544;BME280;50936;51.660;5.616;2023-04-21T06:16:19;101024.41;;;7.22;100.00
64544;BME280;50936;51.660;5.616;2023-04-21T06:18:46;101020.09;;;7.35;100.00
64544;BME280;50936;51.660;5.616;2023-04-21T06:21:13;101025.44;;;7.52;100.00
64544;BME280;50936;51.660;5.616;2023-04-21T06:23:40;101031.34;;;7.59;100.00
64544;BME280;50936;51.660;5.616;2023-04-21T06:26:07;101033.97;;;7.61;100.00
64544;BME280;50936;51.660;5.616;2023-04-21T06:28:35;101038.28;;;7.63;100.00
64544;BME280;50936;51.660;5.616;2023-04-21T06:31:02;101035.19;;;7.71;100.00
64544;BME280;50936;51.660;5.616;2023-04-21T06:33:34;101030.38;;;7.94;100.00
64544;BME280;50936;51.660;5.616;2023-04-21T06:36:01;101039.59;;;8.37;100.00
64544;BME280;50936;51.660;5.616;2023-04-21T06:38:28;101029.63;;;8.85;100.00
64544;BME280;50936;51.660;5.616;2023-04-21T06:40:55;101035.28;;;9.11;100.00
64544;BME280;50936;51.660;5.616;2023-04-21T06:43:22;101041.31;;;9.31;100.00
64544;BME280;50936;51.660;5.616;2023-04-21T06:45:49;101038.22;;;9.37;100.00
64544;BME280;50936;51.660;5.616;2023-04-21T06:48:16;101036.91;;;9.44;100.00
64544;BME280;50936;51.660;5.616;2023-04-21T06:50:57;101036.91;;;9.58;100.00
64544;BME280;50936;51.660;5.616;2023-04-21T06:53:24;101028.59;;;9.61;100.00
64544;BME280;50936;51.660;5.616;2023-04-21T06:55:51;101037.94;;;9.56;100.00
64544;BME280;50936;51.660;5.616;2023-04-21T06:58:18;101039.03;;;9.53;100.00
64544;BME280;50936;51.660;5.616;2023-04-21T07:00:46;101038.63;;;9.45;100.00
64544;BME280;50936;51.660;5.616;2023-04-21T07:03:13;101044.00;;;9.45;100.00
64544;BME280;50936;51.660;5.616;2023-04-21T07:05:41;101035.00;;;9.75;100.00
64544;BME280;50936;51.660;5.616;2023-04-21T07:08:08;101030.34;;;9.91;100.00
64544;BME280;50936;51.660;5.616;2023-04-21T07:10:34;101029.09;;;9.82;100.00
64544;BME280;50936;51.660;5.616;2023-04-21T07:13:01;101034.59;;;9.81;100.00
64544;BME280;50936;51.660;5.616;2023-04-21T07:15:28;101031.81;;;9.82;100.00
64544;BME280;50936;51.660;5.616;2023-04-21T07:17:56;101035.53;;;9.94;100.00
64544;BME280;50936;51.660;5.616;2023-04-21T07:20:24;101032.03;;;10.35;100.00
64544;BME280;50936;51.660;5.616;2023-04-21T07:22:51;101039.50;;;10.86;100.00
64544;BME280;50936;51.660;5.616;2023-04-21T07:25:18;101037.81;;;11.24;100.00
64544;BME280;50936;51.660;5.616;2023-04-21T07:27:45;101042.06;;;11.53;100.00
64544;BME280;50936;51.660;5.616;2023-04-21T07:30:12;101036.06;;;11.87;100.00
64544;BME280;50936;51.660;5.616;2023-04-21T07:32:39;101030.06;;;11.83;100.00
64544;BME280;50936;51.660;5.616;2023-04-21T07:35:06;101027.69;;;11.91;100.00
64544;BME280;50936;51.660;5.616;2023-04-21T07:37:33;101029.19;;;11.96;100.00
64544;BME280;50936;51.660;5.616;2023-04-21T07:40:00;101015.78;;;12.31;100.00
64544;BME280;50936;51.660;5.616;2023-04-21T07:42:27;101009.53;;;12.90;100.00
64544;BME280;50936;51.660;5.616;2023-04-21T07:44:54;101015.38;;;13.32;100.00
64544;BME280;50936;51.660;5.616;2023-04-21T07:47:22;101021.81;;;13.88;100.00
64544;BME280;50936;51.660;5.616;2023-04-21T07:49:50;101027.94;;;14.35;100.00
64544;BME280;50936;51.660;5.616;2023-04-21T07:52:20;101029.78;;;14.46;100.00
64544;BME280;50936;51.660;5.616;2023-04-21T07:54:47;101020.00;;;14.54;100.00
64544;BME280;50936;51.660;5.616;2023-04-21T07:57:14;101026.41;;;14.65;100.00
64544;BME280;50936;51.660;5.616;2023-04-21T07:59:41;101029.69;;;14.79;100.00
64544;BME280;50936;51.660;5.616;2023-04-21T08:02:08;101015.44;;;14.87;100.00
64544;BME280;50936;51.660;5.616;2023-04-21T08:04:35;101013.84;;;15.17;100.00
64544;BME280;50936;51.660;5.616;2023-04-21T08:07:02;101025.03;;;15.45;100.00
64544;BME280;50936;51.660;5.616;2023-04-21T08:09:29;101019.34;;;15.48;100.00
64544;BME280;50936;51.660;5.616;2023-04-21T08:11:56;101028.75;;;15.44;100.00
64544;BME280;50936;51.660;5.616;2023-04-21T08:14:23;101025.81;;;14.93;100.00
64544;BME280;50936;51.660;5.616;2023-04-21T08:16:52;101027.41;;;14.52;100.00
64544;BME280;50936;51.660;5.616;2023-04-21T08:19:22;101023.16;;;14.71;100.00
64544;BME280;50936;51.660;5.616;2023-04-21T08:21:49;101025.03;;;15.02;100.00
64544;BME280;50936;51.660;5.616;2023-04-21T08:24:16;101023.50;;;15.31;100.00
64544;BME280;50936;51.660;5.616;2023-04-21T08:26:44;101017.25;;;15.61;100.00
64544;BME280;50936;51.660;5.616;2023-04-21T08:29:11;101028.72;;;15.86;97.08
64544;BME280;50936;51.660;5.616;2023-04-21T08:31:39;101022.56;;;15.42;96.67
64544;BME280;50936;51.660;5.616;2023-04-21T08:34:06;101014.66;;;14.96;96.88
64544;BME280;50936;51.660;5.616;2023-04-21T08:36:33;101014.56;;;14.66;100.00
64544;BME280;50936;51.660;5.616;2023-04-21T08:39:01;101016.06;;;14.36;100.00
64544;BME280;50936;51.660;5.616;2023-04-21T08:41:28;101014.00;;;14.28;100.00
64544;BME280;50936;51.660;5.616;2023-04-21T08:43:55;101008.72;;;14.15;100.00
64544;BME280;50936;51.660;5.616;2023-04-21T08:46:22;101011.69;;;14.23;100.00
64544;BME280;50936;51.660;5.616;2023-04-21T08:48:50;101008.69;;;14.27;100.00
64544;BME280;50936;51.660;5.616;2023-04-21T08:51:21;101007.75;;;14.05;100.00
64544;BME280;50936;51.660;5.616;2023-04-21T08:53:49;101012.69;;;13.89;100.00
64544;BME280;50936;51.660;5.616;2023-04-21T08:56:17;101006.03;;;13.70;100.00
64544;BME280;50936;51.660;5.616;2023-04-21T08:58:44;101006.00;;;13.59;100.00
64544;BME280;50936;51.660;5.616;2023-04-21T09:01:11;101000.84;;;13.56;100.00
64544;BME280;50936;51.660;5.616;2023-04-21T09:03:38;101002.06;;;13.85;100.00
64544;BME280;50936;51.660;5.616;2023-04-21T09:06:08;101003.94;;;13.96;100.00
64544;BME280;50936;51.660;5.616;2023-04-21T09:08:38;101009.22;;;14.09;100.00
64544;BME280;50936;51.660;5.616;2023-04-21T09:11:12;101003.22;;;14.60;100.00
64544;BME280;50936;51.660;5.616;2023-04-21T09:13:41;101003.63;;;14.77;100.00
64544;BME280;50936;51.660;5.616;2023-04-21T09:16:20;101002.44;;;14.70;100.00
64544;BME280;50936;51.660;5.616;2023-04-21T09:18:48;101002.72;;;14.44;99.49
64544;BME280;50936;51.660;5.616;2023-04-21T09:21:18;101004.75;;;14.19;100.00
64544;BME280;50936;51.660;5.616;2023-04-21T09:23:51;100998.63;;;13.95;100.00
64544;BME280;50936;51.660;5.616;2023-04-21T09:26:19;100991.47;;;13.71;100.00
64544;BME280;50936;51.660;5.616;2023-04-21T09:28:51;100993.44;;;13.58;100.00
64544;BME280;50936;51.660;5.616;2023-04-21T09:31:21;100995.16;;;13.59;100.00
64544;BME280;50936;51.660;5.616;2023-04-21T09:33:57;100994.19;;;13.60;100.00
64544;BME280;50936;51.660;5.616;2023-04-21T09:36:28;100998.38;;;13.64;100.00
64544;BME280;50936;51.660;5.616;2023-04-21T09:38:58;101000.09;;;13.76;100.00
64544;BME280;50936;51.660;5.616;2023-04-21T09:41:30;100997.88;;;13.93;100.00
64544;BME280;50936;51.660;5.616;2023-04-21T09:43:58;101001.34;;;13.95;100.00
64544;BME280;50936;51.660;5.616;2023-04-21T09:46:34;100990.97;;;13.89;100.00
64544;BME280;50936;51.660;5.616;2023-04-21T09:49:03;101000.59;;;13.81;100.00
64544;BME280;50936;51.660;5.616;2023-04-21T09:51:32;100990.97;;;13.89;100.00
64544;BME280;50936;51.660;5.616;2023-04-21T09:54:14;100987.41;;;13.99;100.00
64544;BME280;50936;51.660;5.616;2023-04-21T09:56:48;100985.56;;;13.89;100.00
64544;BME280;50936;51.660;5.616;2023-04-21T09:59:24;100989.63;;;13.94;100.00
64544;BME280;50936;51.660;5.616;2023-04-21T10:01:56;100986.97;;;14.15;100.00
64544;BME280;50936;51.660;5.616;2023-04-21T10:04:27;100983.75;;;14.33;100.00
64544;BME280;50936;51.660;5.616;2023-04-21T10:06:58;100979.66;;;14.38;100.00
64544;BME280;50936;51.660;5.616;2023-04-21T10:09:30;100985.09;;;14.82;100.00
64544;BME280;50936;51.660;5.616;2023-04-21T10:12:03;100987.22;;;14.99;95.47
64544;BME280;50936;51.660;5.616;2023-04-21T10:14:34;100990.00;;;14.88;98.20
64544;BME280;50936;51.660;5.616;2023-04-21T10:17:05;100973.78;;;14.66;99.12
64544;BME280;50936;51.660;5.616;2023-04-21T10:19:35;100978.22;;;14.55;100.00
64544;BME280;50936;51.660;5.616;2023-04-21T10:22:07;100971.78;;;14.68;100.00
64544;BME280;50936;51.660;5.616;2023-04-21T10:24:39;100975.81;;;15.06;99.88
64544;BME280;50936;51.660;5.616;2023-04-21T10:27:11;100970.59;;;15.45;94.57
64544;BME280;50936;51.660;5.616;2023-04-21T10:29:57;100978.81;;;15.75;92.31
64544;BME280;50936;51.660;5.616;2023-04-21T10:32:44;100967.16;;;15.73;93.50
64544;BME280;50936;51.660;5.616;2023-04-21T10:35:13;100967.44;;;15.70;92.42
64544;BME280;50936;51.660;5.616;2023-04-21T10:37:42;100960.94;;;15.62;93.83
64544;BME280;50936;51.660;5.616;2023-04-21T10:43:41;100944.75;;;15.91;93.05
64544;BME280;50936;51.660;5.616;2023-04-21T10:46:36;100951.09;;;16.01;88.13
64544;BME280;50936;51.660;5.616;2023-04-21T10:49:25;100933.28;;;15.97;89.47
64544;BME280;50936;51.660;5.616;2023-04-21T10:54:25;100932.56;;;15.95;85.99
64544;BME280;50936;51.660;5.616;2023-04-21T10:56:54;100933.25;;;15.77;87.44
64544;BME280;50936;51.660;5.616;2023-04-21T10:59:22;100924.69;;;15.61;91.04
64544;BME280;50936;51.660;5.616;2023-04-21T11:01:51;100932.88;;;15.71;91.36
64544;BME280;50936;51.660;5.616;2023-04-21T11:04:20;100922.81;;;15.83;92.45
64544;BME280;50936;51.660;5.616;2023-04-21T11:07:09;100926.13;;;15.96;91.83
64544;BME280;50936;51.660;5.616;2023-04-21T11:09:39;100917.28;;;16.23;90.89
64544;BME280;50936;51.660;5.616;2023-04-21T11:12:10;100905.22;;;16.26;89.60
64544;BME280;50936;51.660;5.616;2023-04-21T11:14:40;100903.53;;;16.25;89.52
64544;BME280;50936;51.660;5.616;2023-04-21T11:17:19;100903.25;;;16.67;87.56
64544;BME280;50936;51.660;5.616;2023-04-21T11:19:54;100903.78;;;17.00;84.76
64544;BME280;50936;51.660;5.616;2023-04-21T11:22:25;100886.22;;;17.12;79.77
64544;BME280;50936;51.660;5.616;2023-04-21T11:24:54;100891.56;;;17.04;81.36
64544;BME280;50936;51.660;5.616;2023-04-21T11:27:27;100879.25;;;16.80;81.45
64544;BME280;50936;51.660;5.616;2023-04-21T11:29:56;100882.56;;;16.54;83.97
64544;BME280;50936;51.660;5.616;2023-04-21T11:32:23;100882.28;;;16.48;87.12
64544;BME280;50936;51.660;5.616;2023-04-21T11:34:54;100863.88;;;16.79;84.81
64544;BME280;50936;51.660;5.616;2023-04-21T11:37:23;100874.25;;;16.85;86.04
64544;BME280;50936;51.660;5.616;2023-04-21T11:39:59;100876.38;;;16.91;84.31
64544;BME280;50936;51.660;5.616;2023-04-21T11:42:27;100869.84;;;17.12;84.67
64544;BME280;50936;51.660;5.616;2023-04-21T11:44:55;100866.03;;;17.32;84.50
64544;BME280;50936;51.660;5.616;2023-04-21T11:47:27;100857.16;;;17.58;84.36
64544;BME280;50936;51.660;5.616;2023-04-21T11:49:55;100857.47;;;17.83;80.02
64544;BME280;50936;51.660;5.616;2023-04-21T11:52:31;100852.44;;;17.60;80.89
64544;BME280;50936;51.660;5.616;2023-04-21T11:55:11;100845.16;;;17.69;78.51
64544;BME280;50936;51.660;5.616;2023-04-21T11:57:41;100844.09;;;17.80;76.76
64544;BME280;50936;51.660;5.616;2023-04-21T12:00:09;100845.22;;;17.59;78.64
64544;BME280;50936;51.660;5.616;2023-04-21T12:02:38;100849.38;;;17.36;82.41
64544;BME280;50936;51.660;5.616;2023-04-21T12:05:11;100843.72;;;17.09;83.76
64544;BME280;50936;51.660;5.616;2023-04-21T12:07:43;100839.66;;;16.76;87.02
64544;BME280;50936;51.660;5.616;2023-04-21T12:10:21;100837.22;;;16.53;89.21
64544;BME280;50936;51.660;5.616;2023-04-21T12:12:47;100832.91;;;16.70;91.10
64544;BME280;50936;51.660;5.616;2023-04-21T12:15:19;100841.38;;;17.24;86.88
64544;BME280;50936;51.660;5.616;2023-04-21T12:17:52;100834.09;;;17.43;86.09
64544;BME280;50936;51.660;5.616;2023-04-21T12:20:24;100829.81;;;17.40;86.94
64544;BME280;50936;51.660;5.616;2023-04-21T12:22:53;100828.09;;;17.39;85.84
64544;BME280;50936;51.660;5.616;2023-04-21T12:25:21;100822.69;;;17.29;86.12
64544;BME280;50936;51.660;5.616;2023-04-21T12:27:51;100820.44;;;17.15;85.09
64544;BME280;50936;51.660;5.616;2023-04-21T12:30:20;100820.44;;;17.15;87.30
64544;BME280;50936;51.660;5.616;2023-04-21T12:32:47;100811.25;;;17.72;84.99
64544;BME280;50936;51.660;5.616;2023-04-21T12:35:14;100813.31;;;18.05;81.36
64544;BME280;50936;51.660;5.616;2023-04-21T12:37:41;100808.69;;;18.24;79.02
64544;BME280;50936;51.660;5.616;2023-04-21T12:40:10;100818.53;;;18.35;78.25
64544;BME280;50936;51.660;5.616;2023-04-21T12:42:37;100815.88;;;18.43;78.83
64544;BME280;50936;51.660;5.616;2023-04-21T12:45:04;100811.50;;;18.32;79.86
64544;BME280;50936;51.660;5.616;2023-04-21T12:47:33;100809.91;;;18.47;76.73
64544;BME280;50936;51.660;5.616;2023-04-21T12:50:03;100804.94;;;18.69;76.55
64544;BME280;50936;51.660;5.616;2023-04-21T12:52:30;100792.19;;;19.04;77.51
64544;BME280;50936;51.660;5.616;2023-04-21T12:54:57;100791.34;;;19.46;72.36
64544;BME280;50936;51.660;5.616;2023-04-21T12:57:24;100776.97;;;19.52;72.11
64544;BME280;50936;51.660;5.616;2023-04-21T12:59:51;100790.34;;;19.55;70.35
64544;BME280;50936;51.660;5.616;2023-04-21T13:02:18;100775.66;;;19.56;70.35